createdAt,value
2022-10-20T00:04:54.862Z,63.04
2022-10-20T00:08:00.620Z,63.44
2022-10-20T00:11:06.785Z,63.15
2022-10-20T00:14:12.843Z,62.82
2022-10-20T00:17:18.553Z,62.66
2022-10-20T00:20:24.442Z,62.66
2022-10-20T00:23:30.106Z,62.81
2022-10-20T00:26:35.962Z,63.27
2022-10-20T00:29:42.031Z,63.39
2022-10-20T00:32:49.770Z,63.64
2022-10-20T00:35:55.650Z,63.58
2022-10-20T00:39:05.661Z,63.09
2022-10-20T00:42:15.964Z,62.54
2022-10-20T00:45:23.283Z,61.93
2022-10-20T00:48:33.175Z,62.13
2022-10-20T00:51:39.103Z,61.78
2022-10-20T00:54:44.851Z,61.81
2022-10-20T00:57:53.261Z,61.06
2022-10-20T01:01:00.966Z,60.65
2022-10-20T01:04:07.206Z,60.95
2022-10-20T01:07:13.088Z,61.15
2022-10-20T01:10:19.664Z,61.34
2022-10-20T01:13:37.813Z,61.13
2022-10-20T01:16:55.956Z,60.99
2022-10-20T01:20:46.660Z,61.09
2022-10-20T01:24:38.700Z,60.91
2022-10-20T01:27:46.598Z,60.47
2022-10-20T01:30:58.092Z,60.31
2022-10-20T01:34:09.978Z,59.95
2022-10-20T01:37:34.015Z,59.91
2022-10-20T01:40:51.312Z,59.64
2022-10-20T01:43:57.881Z,59.54
2022-10-20T01:47:05.058Z,59.84
2022-10-20T01:50:13.904Z,61.05
2022-10-20T01:53:20.769Z,61.05
2022-10-20T01:56:36.756Z,60.89
2022-10-20T02:00:01.047Z,60.88
2022-10-20T02:03:34.138Z,60.78
2022-10-20T02:06:51.058Z,60.52
2022-10-20T02:10:01.933Z,60.45
2022-10-20T02:13:11.400Z,60.51
2022-10-20T02:16:21.142Z,60.44
2022-10-20T02:19:34.889Z,60.47
2022-10-20T02:22:42.323Z,60.44
2022-10-20T02:25:50.889Z,60.44
2022-10-20T02:29:01.760Z,60.70
2022-10-20T02:32:09.185Z,60.67
2022-10-20T02:35:19.096Z,60.91
2022-10-20T02:38:24.853Z,61.21
2022-10-20T02:41:31.257Z,61.32
2022-10-20T02:44:36.897Z,61.21
2022-10-20T02:47:42.630Z,61.37
2022-10-20T02:50:48.380Z,61.64
2022-10-20T02:53:55.009Z,61.77
2022-10-20T02:57:00.651Z,61.77
2022-10-20T03:00:08.085Z,62.29
2022-10-20T03:03:13.856Z,62.53
2022-10-20T03:06:19.608Z,62.42
2022-10-20T03:09:25.360Z,62.73
2022-10-20T03:12:32.249Z,62.90
2022-10-20T03:15:38.611Z,63.46
2022-10-20T03:18:44.280Z,63.77
2022-10-20T03:21:49.996Z,63.96
2022-10-20T03:24:55.691Z,64.11
2022-10-20T03:28:01.606Z,64.07
2022-10-20T03:31:07.540Z,63.73
2022-10-20T03:34:13.950Z,63.54
2022-10-20T03:37:19.708Z,63.43
2022-10-20T03:40:25.553Z,63.17
2022-10-20T03:43:31.218Z,63.46
2022-10-20T03:46:36.971Z,63.29
2022-10-20T03:49:43.225Z,63.14
2022-10-20T03:52:48.293Z,63.14
2022-10-20T03:55:54.236Z,63.14
2022-10-20T03:59:00.043Z,63.29
2022-10-20T04:02:06.388Z,63.59
2022-10-20T04:05:12.829Z,63.69
2022-10-20T04:08:18.708Z,63.95
2022-10-20T04:11:27.009Z,63.66
2022-10-20T04:14:32.651Z,63.25
2022-10-20T04:20:45.490Z,62.92
2022-10-20T04:23:51.171Z,62.54
2022-10-20T04:26:56.846Z,62.38
2022-10-20T04:30:02.486Z,62.11
2022-10-20T04:33:08.480Z,61.76
2022-10-20T04:36:15.533Z,61.77
2022-10-20T04:39:21.244Z,61.92
2022-10-20T04:42:27.100Z,61.74
2022-10-20T04:45:32.855Z,61.59
2022-10-20T04:48:39.019Z,61.67
2022-10-20T04:51:44.774Z,61.91
2022-10-20T04:54:50.939Z,61.87
2022-10-20T04:57:56.589Z,61.62
2022-10-20T05:01:06.620Z,61.96
2022-10-20T05:04:13.211Z,62.23
2022-10-20T05:07:18.972Z,62.31
2022-10-20T05:10:24.724Z,62.50
2022-10-20T05:13:30.478Z,62.66
2022-10-20T05:16:36.556Z,62.73
2022-10-20T05:19:42.295Z,62.60
2022-10-20T05:22:48.049Z,62.83
2022-10-20T05:25:53.725Z,62.76
2022-10-20T05:28:59.454Z,62.74
2022-10-20T05:32:05.322Z,62.56
2022-10-20T05:35:12.146Z,62.75
2022-10-20T05:38:17.825Z,62.59
2022-10-20T05:41:25.470Z,62.64
2022-10-20T05:44:31.501Z,63.07
2022-10-20T05:47:37.767Z,62.90
2022-10-20T05:50:43.687Z,62.54
2022-10-20T05:53:49.788Z,63.26
2022-10-20T05:56:55.454Z,62.41
2022-10-20T06:00:01.194Z,62.64
2022-10-20T06:03:07.050Z,62.82
2022-10-20T06:06:12.698Z,62.98
2022-10-20T06:09:19.521Z,63.17
2022-10-20T06:12:25.317Z,63.30
2022-10-20T06:15:30.989Z,63.95
2022-10-20T06:18:38.855Z,64.27
2022-10-20T06:21:44.554Z,64.59
2022-10-20T06:24:50.299Z,64.76
2022-10-20T06:27:56.054Z,65.23
2022-10-20T06:31:02.114Z,65.18
2022-10-20T06:34:10.079Z,65.36
2022-10-20T06:37:15.983Z,65.33
2022-10-20T06:40:22.039Z,65.49
2022-10-20T06:43:28.408Z,65.37
2022-10-20T06:46:36.476Z,65.46
2022-10-20T06:49:42.184Z,65.43
2022-10-20T06:52:47.923Z,65.42
2022-10-20T06:56:00.144Z,65.49
2022-10-20T06:59:06.297Z,65.80
2022-10-20T07:02:13.636Z,66.10
2022-10-20T07:05:19.999Z,66.27
2022-10-20T07:08:24.072Z,66.34
2022-10-20T07:11:32.096Z,66.46
2022-10-20T07:14:37.827Z,66.68
2022-10-20T07:17:43.440Z,66.81
2022-10-20T07:20:49.061Z,66.81
2022-10-20T07:23:56.264Z,66.95
2022-10-20T07:27:01.970Z,67.36
2022-10-20T07:30:09.200Z,67.61
2022-10-20T07:33:14.911Z,68.04
2022-10-20T07:36:23.961Z,68.32
2022-10-20T07:39:29.999Z,68.48
2022-10-20T07:42:35.897Z,68.62
2022-10-20T07:45:41.746Z,68.78
2022-10-20T07:48:47.568Z,68.60
2022-10-20T07:51:53.329Z,68.80
2022-10-20T07:55:07.486Z,69.44
2022-10-20T07:58:25.625Z,70.22
2022-10-20T08:01:31.740Z,70.31
2022-10-20T08:04:37.542Z,70.12
2022-10-20T08:07:43.296Z,69.75
2022-10-20T08:10:49.359Z,69.67
2022-10-20T08:13:55.111Z,69.47
2022-10-20T08:17:03.413Z,69.15
2022-10-20T08:20:16.966Z,68.86
2022-10-20T08:23:22.600Z,68.49
2022-10-20T08:26:29.127Z,68.21
2022-10-20T08:29:34.821Z,68.07
2022-10-20T08:32:40.798Z,66.84
2022-10-20T08:35:46.553Z,67.04
2022-10-20T08:38:52.357Z,66.95
2022-10-20T08:42:08.848Z,66.17
2022-10-20T08:45:19.380Z,65.74
2022-10-20T08:48:28.608Z,65.90
2022-10-20T08:51:38.520Z,65.65
2022-10-20T08:54:44.349Z,65.13
2022-10-20T08:57:50.781Z,64.93
2022-10-20T09:01:00.663Z,65.23
2022-10-20T09:04:22.576Z,65.00
2022-10-20T09:07:33.163Z,64.83
2022-10-20T09:10:42.892Z,63.70
2022-10-20T09:17:00.673Z,63.02
2022-10-20T09:20:13.350Z,62.82
2022-10-20T09:23:39.871Z,62.78
2022-10-20T09:27:03.706Z,62.08
2022-10-20T09:30:22.234Z,60.97
2022-10-20T09:33:31.946Z,60.50
2022-10-20T09:36:38.433Z,59.78
2022-10-20T09:39:55.387Z,58.74
2022-10-20T09:43:03.480Z,59.03
2022-10-20T09:46:12.209Z,60.62
2022-10-20T09:49:29.835Z,62.56
2022-10-20T09:52:47.830Z,62.09
2022-10-20T09:55:54.465Z,59.65
2022-10-20T09:59:00.117Z,58.31
2022-10-20T10:02:26.898Z,57.95
2022-10-20T10:05:35.805Z,61.54
2022-10-20T10:08:48.002Z,63.32
2022-10-20T10:12:00.658Z,61.45
2022-10-20T10:15:20.094Z,60.73
2022-10-20T10:18:26.032Z,60.75
2022-10-20T10:21:44.279Z,58.93
2022-10-20T10:24:52.285Z,57.55
2022-10-20T10:28:04.696Z,58.04
2022-10-20T10:31:23.372Z,61.96
2022-10-20T10:34:55.219Z,62.53
2022-10-20T10:38:01.618Z,59.97
2022-10-20T10:41:09.516Z,60.40
2022-10-20T10:44:21.624Z,58.48
2022-10-20T10:47:41.780Z,59.47
2022-10-20T10:50:52.967Z,61.76
2022-10-20T10:54:12.364Z,62.01
2022-10-20T10:57:32.120Z,60.91
2022-10-20T11:00:49.310Z,57.70
2022-10-20T11:04:27.141Z,58.75
2022-10-20T11:07:43.760Z,58.71
2022-10-20T11:11:01.496Z,58.27
2022-10-20T11:17:47.226Z,57.42
2022-10-20T11:21:02.614Z,60.94
2022-10-20T11:24:21.855Z,60.33
2022-10-20T11:27:32.013Z,58.39
2022-10-20T11:30:37.768Z,59.76
2022-10-20T11:33:48.642Z,61.69
2022-10-20T11:37:01.358Z,59.97
2022-10-20T11:40:17.989Z,59.68
2022-10-20T11:43:28.865Z,59.48
2022-10-20T11:46:39.321Z,59.87
2022-10-20T11:49:57.757Z,58.23
2022-10-20T11:54:00.654Z,59.38
2022-10-20T11:57:30.312Z,57.84
2022-10-20T12:00:59.552Z,57.01
2022-10-20T12:04:34.211Z,56.72
2022-10-20T12:08:29.537Z,58.12
2022-10-20T12:11:43.976Z,59.15
2022-10-20T12:14:57.429Z,59.19
2022-10-20T12:18:07.773Z,57.74
2022-10-20T12:21:14.103Z,57.01
2022-10-20T12:24:40.670Z,58.33
2022-10-20T12:27:46.438Z,58.02
2022-10-20T12:30:59.303Z,57.47
2022-10-20T12:34:05.220Z,57.59
2022-10-20T12:37:19.775Z,56.71
2022-10-20T12:40:31.264Z,56.72
2022-10-20T12:43:54.324Z,55.26
2022-10-20T12:47:05.485Z,55.91
2022-10-20T12:50:35.159Z,55.90
2022-10-20T12:53:41.526Z,54.56
2022-10-20T12:56:47.882Z,56.57
2022-10-20T12:59:53.816Z,56.15
2022-10-20T13:03:00.276Z,55.34
2022-10-20T13:06:44.976Z,55.89
2022-10-20T13:10:01.811Z,55.55
2022-10-20T13:14:03.055Z,55.84
2022-10-20T13:17:21.677Z,56.10
2022-10-20T13:20:40.553Z,56.07
2022-10-20T13:23:49.082Z,56.39
2022-10-20T13:26:59.854Z,56.33
2022-10-20T13:30:10.952Z,56.32
2022-10-20T13:33:38.389Z,55.94
2022-10-20T13:37:10.899Z,56.26
2022-10-20T13:40:24.360Z,56.60
2022-10-20T13:43:39.155Z,56.57
2022-10-20T13:46:58.145Z,56.49
2022-10-20T13:50:08.559Z,56.57
2022-10-20T13:53:23.043Z,56.71
2022-10-20T13:56:35.656Z,56.79
2022-10-20T13:59:55.643Z,56.10
2022-10-20T14:03:04.469Z,56.90
2022-10-20T14:06:32.500Z,55.89
2022-10-20T14:09:40.615Z,56.88
2022-10-20T14:12:49.828Z,56.71
2022-10-20T14:15:55.750Z,56.83
2022-10-20T14:19:03.498Z,57.27
2022-10-20T14:22:23.074Z,56.46
2022-10-20T14:25:31.485Z,56.98
2022-10-20T14:28:40.109Z,57.06
2022-10-20T14:31:46.857Z,57.58
2022-10-20T14:35:00.726Z,57.62
2022-10-20T14:38:16.988Z,57.46
2022-10-20T14:41:30.861Z,57.45
2022-10-20T14:44:36.881Z,58.00
2022-10-20T14:47:44.183Z,57.59
2022-10-20T14:50:50.369Z,57.99
2022-10-20T14:54:14.431Z,57.72
2022-10-20T14:57:45.976Z,57.86
2022-10-20T15:00:51.745Z,58.46
2022-10-20T15:04:14.394Z,57.85
2022-10-20T15:07:23.630Z,58.11
2022-10-20T15:10:32.042Z,57.92
2022-10-20T15:13:38.349Z,58.78
2022-10-20T15:16:47.460Z,58.68
2022-10-20T15:19:53.205Z,58.54
2022-10-20T15:22:59.995Z,58.97
2022-10-20T15:26:11.393Z,59.29
2022-10-20T15:29:17.153Z,58.98
2022-10-20T15:32:22.873Z,59.30
2022-10-20T15:35:31.026Z,59.40
2022-10-20T15:38:36.684Z,59.53
2022-10-20T15:41:42.860Z,60.05
2022-10-20T15:44:48.552Z,60.42
2022-10-20T15:47:54.204Z,60.64
2022-10-20T15:51:00.261Z,61.00
2022-10-20T15:54:06.088Z,61.25
2022-10-20T15:57:11.813Z,61.78
2022-10-20T16:00:18.720Z,61.96
2022-10-20T16:03:24.409Z,63.75
2022-10-20T16:06:30.162Z,65.07
2022-10-20T16:09:35.918Z,63.94
2022-10-20T16:12:42.082Z,62.55
2022-10-20T16:15:47.721Z,61.65
2022-10-20T16:18:53.488Z,61.34
2022-10-20T16:21:59.243Z,60.71
2022-10-20T16:25:05.950Z,59.00
2022-10-20T16:28:12.105Z,58.69
2022-10-20T16:31:18.777Z,59.95
2022-10-20T16:34:24.470Z,61.01
2022-10-20T16:37:31.391Z,61.77
2022-10-20T16:40:37.147Z,63.97
2022-10-20T16:43:45.462Z,64.92
2022-10-20T16:46:51.213Z,64.07
2022-10-20T16:49:57.276Z,63.34
2022-10-20T16:53:03.071Z,62.58
2022-10-20T16:56:10.424Z,62.50
2022-10-20T16:59:16.177Z,61.88
2022-10-20T17:02:23.369Z,61.44
2022-10-20T17:05:29.118Z,61.55
2022-10-20T17:08:36.075Z,61.18
2022-10-20T17:11:41.976Z,61.10
2022-10-20T17:14:47.670Z,61.01
2022-10-20T17:17:53.320Z,60.92
2022-10-20T17:20:59.016Z,60.53
2022-10-20T17:24:04.845Z,60.46
2022-10-20T17:27:11.560Z,60.46
2022-10-20T17:30:17.603Z,60.04
2022-10-20T17:33:24.388Z,59.01
2022-10-20T17:36:31.365Z,59.36
2022-10-20T17:39:37.637Z,60.55
2022-10-20T17:42:43.289Z,61.66
2022-10-20T17:45:58.190Z,63.97
2022-10-20T17:49:04.380Z,65.22
2022-10-20T17:52:10.015Z,64.43
2022-10-20T17:55:15.913Z,63.59
2022-10-20T17:58:21.674Z,63.27
2022-10-20T18:01:29.839Z,62.84
2022-10-20T18:04:36.061Z,62.56
2022-10-20T18:07:41.917Z,62.34
2022-10-20T18:10:49.207Z,61.81
2022-10-20T18:13:56.602Z,61.55
2022-10-20T18:17:02.457Z,61.94
2022-10-20T18:20:09.820Z,62.45
2022-10-20T18:23:15.434Z,61.70
2022-10-20T18:26:22.422Z,61.25
2022-10-20T18:29:28.546Z,61.29
2022-10-20T18:32:36.257Z,60.96
2022-10-20T18:35:42.248Z,60.83
2022-10-20T18:38:48.675Z,60.95
2022-10-20T18:41:55.745Z,60.82
2022-10-20T18:45:01.516Z,60.47
2022-10-20T18:48:08.640Z,60.19
2022-10-20T18:51:15.289Z,60.45
2022-10-20T18:54:23.727Z,60.25
2022-10-20T18:57:31.597Z,59.97
2022-10-20T19:00:37.406Z,59.80
2022-10-20T19:03:46.281Z,59.73
2022-10-20T19:06:52.283Z,58.69
2022-10-20T19:09:57.998Z,58.97
2022-10-20T19:13:03.663Z,60.45
2022-10-20T19:16:12.572Z,61.89
2022-10-20T19:19:18.635Z,64.82
2022-10-20T19:22:27.039Z,66.16
2022-10-20T19:25:35.265Z,67.08
2022-10-20T19:28:43.933Z,64.81
2022-10-20T19:31:52.318Z,64.27
2022-10-20T19:34:58.057Z,63.83
2022-10-20T19:38:03.814Z,63.33
2022-10-20T19:41:10.049Z,62.99
2022-10-20T19:44:16.234Z,62.51
2022-10-20T19:47:21.994Z,62.15
2022-10-20T19:50:27.779Z,61.86
2022-10-20T19:53:35.161Z,61.63
2022-10-20T19:56:41.509Z,61.21
2022-10-20T19:59:45.661Z,61.70
2022-10-20T20:02:51.379Z,62.25
2022-10-20T20:06:01.912Z,61.70
2022-10-20T20:09:10.624Z,61.31
2022-10-20T20:12:16.321Z,61.14
2022-10-20T20:15:22.177Z,60.91
2022-10-20T20:18:27.932Z,60.82
2022-10-20T20:21:33.802Z,60.79
2022-10-20T20:24:39.954Z,60.72
2022-10-20T20:27:45.709Z,60.56
2022-10-20T20:31:04.177Z,60.91
2022-10-20T20:34:09.912Z,61.37
2022-10-20T20:37:15.670Z,61.58
2022-10-20T20:40:21.751Z,61.62
2022-10-20T20:43:28.245Z,61.74
2022-10-20T20:46:34.316Z,61.85
2022-10-20T20:49:39.981Z,61.90
2022-10-20T20:52:45.871Z,62.22
2022-10-20T20:55:59.265Z,62.57
2022-10-20T20:59:05.313Z,62.55
2022-10-20T21:02:12.092Z,62.34
2022-10-20T21:05:17.984Z,62.20
2022-10-20T21:08:23.858Z,62.04
2022-10-20T21:11:30.026Z,61.94
2022-10-20T21:14:35.778Z,61.91
2022-10-20T21:17:41.502Z,61.73
2022-10-20T21:20:47.183Z,61.54
2022-10-20T21:23:53.557Z,61.69
2022-10-20T21:26:57.679Z,61.82
2022-10-20T21:30:03.523Z,61.67
2022-10-20T21:33:09.147Z,61.18
2022-10-20T21:36:16.979Z,61.06
2022-10-20T21:39:22.813Z,60.86
2022-10-20T21:42:28.513Z,60.60
2022-10-20T21:45:34.241Z,60.55
2022-10-20T21:48:39.996Z,60.62
2022-10-20T21:51:47.898Z,60.94
2022-10-20T21:54:53.582Z,61.84
2022-10-20T21:57:59.304Z,61.38
2022-10-20T22:01:11.369Z,60.70
2022-10-20T22:04:18.083Z,60.70
2022-10-20T22:07:24.041Z,60.60
2022-10-20T22:10:29.796Z,60.47
2022-10-20T22:13:35.847Z,60.31
2022-10-20T22:16:43.660Z,60.28
2022-10-20T22:19:50.438Z,60.24
2022-10-20T22:22:56.091Z,60.42
2022-10-20T22:26:01.941Z,61.78
2022-10-20T22:29:10.053Z,62.61
2022-10-20T22:32:15.810Z,62.61
2022-10-20T22:35:21.427Z,62.64
2022-10-20T22:38:27.222Z,62.54
2022-10-20T22:41:32.875Z,62.37
2022-10-20T22:44:38.622Z,62.65
2022-10-20T22:47:44.376Z,62.66
2022-10-20T22:50:50.328Z,62.86
2022-10-20T22:53:55.986Z,62.40
2022-10-20T22:57:01.640Z,62.05
2022-10-20T23:00:09.512Z,61.90
2022-10-20T23:03:15.155Z,62.11
2022-10-20T23:06:22.388Z,62.46
2022-10-20T23:09:28.138Z,62.04
2022-10-20T23:12:34.658Z,61.62
2022-10-20T23:15:40.559Z,61.96
2022-10-20T23:18:46.426Z,62.11
2022-10-20T23:21:54.088Z,61.73
2022-10-20T23:24:59.775Z,61.44
2022-10-20T23:28:05.735Z,61.50
2022-10-20T23:31:13.879Z,61.62
2022-10-20T23:34:19.597Z,62.37
2022-10-20T23:37:25.454Z,62.01
2022-10-20T23:40:31.518Z,61.59
2022-10-20T23:43:37.589Z,61.31
2022-10-20T23:46:44.051Z,61.44
2022-10-20T23:49:49.693Z,61.51
2022-10-20T23:52:55.454Z,61.54
2022-10-20T23:56:01.210Z,61.57
2022-10-20T23:59:07.268Z,61.80
